Terminal Aerodrome Forecast
Issued by NWS

Home | Current Version | Previous Version | Text Only | Print | Product List | Glossary On
Versions: 1 2 3 4 5 6 7 8 9 10 11 12 13 14 15 16
457
FTUS43 KMQT 111741 AAC
TAFIWD
TAF AMD
KIWD 111741Z 1118/1218 25005KT 5SM -SHSN OVC015
     FM112000 32013G24KT P6SM -SHSN OVC015
     FM112200 34017G29KT 6SM -SHSN BLSN OVC020
     FM120800 33014G23KT 1 1/2SM -SHSN BLSN BKN020
     FM121300 33012G20KT 3SM BLSN BKN015=

USA.gov is the U.S. government's official web portal to all federal, state and local government web resources and services.